Time;durP1;ratioP1;P1;durP2;ratioP2;P2;SDS_P1;SDS_P2;PMS_P1;PMS_P2;Temp;Humidity;BMP_temperature;BMP_pressure;BME280_temperature;BME280_humidity;BME280_pressure;Samples;Min_cycle;Max_cycle;Signal;HPM_P1;HPM_P2
2022/04/20 00:01:46;;;;;;;6.80;6.13;;;12.90;51.70;;;;;;4930697;29;20122;-92
2022/04/20 00:04:12;;;;;;;6.40;5.07;;;12.90;51.70;;;;;;4931406;29;20555;-92
2022/04/20 00:06:38;;;;;;;8.25;6.07;;;12.80;51.60;;;;;;4931737;29;20032;-92
2022/04/20 00:09:04;;;;;;;10.20;6.50;;;12.80;51.70;;;;;;4932832;29;20051;-93
2022/04/20 00:11:30;;;;;;;8.27;5.78;;;12.80;51.80;;;;;;4932522;29;20047;-92
2022/04/20 00:13:56;;;;;;;6.95;6.20;;;12.80;51.90;;;;;;4931785;29;20086;-93
2022/04/20 00:16:23;;;;;;;6.55;5.95;;;12.70;51.80;;;;;;4931516;29;20051;-92
2022/04/20 00:18:50;;;;;;;7.43;5.93;;;12.70;51.90;;;;;;4933425;29;20531;-92
2022/04/20 00:21:16;;;;;;;7.63;6.18;;;12.60;51.80;;;;;;4932661;29;20027;-92
2022/04/20 00:23:42;;;;;;;9.93;7.00;;;12.60;51.90;;;;;;4937590;29;20054;-91
2022/04/20 00:26:08;;;;;;;7.30;6.07;;;12.60;52.00;;;;;;4945032;29;20236;-91
2022/04/20 00:28:34;;;;;;;7.57;6.43;;;12.60;52.00;;;;;;4935231;28;20035;-92
2022/04/20 00:30:59;;;;;;;8.80;7.13;;;12.60;52.10;;;;;;4935340;28;20036;-91
2022/04/20 00:33:25;;;;;;;8.57;6.47;;;12.50;52.00;;;;;;4930678;29;20024;-90
2022/04/20 00:35:51;;;;;;;6.75;6.15;;;12.50;52.10;;;;;;4928601;29;20032;-88
2022/04/20 00:38:17;;;;;;;7.32;6.55;;;12.50;52.10;;;;;;4929819;29;20036;-88
2022/04/20 00:40:45;;;;;;;7.30;6.63;;;12.40;52.00;;;;;;4929214;29;20491;-88
2022/04/20 00:43:12;;;;;;;6.78;6.07;;;12.40;52.10;;;;;;4923968;29;20125;-88
2022/04/20 00:45:40;;;;;;;6.88;6.18;;;12.40;52.10;;;;;;4920754;29;20035;-87
2022/04/20 00:48:11;;;;;;;9.05;7.18;;;12.30;52.10;;;;;;4929757;29;20389;-88
2022/04/20 00:50:40;;;;;;;9.05;6.20;;;12.30;52.10;;;;;;4929948;29;20242;-88
2022/04/20 00:53:06;;;;;;;9.20;7.25;;;12.30;52.20;;;;;;4921264;29;20031;-89
2022/04/20 00:55:32;;;;;;;9.70;7.60;;;12.30;52.30;;;;;;4933262;29;20047;-88
2022/04/20 00:58:02;;;;;;;8.15;7.40;;;12.20;52.20;;;;;;4929495;29;20042;-88
2022/04/20 01:00:31;;;;;;;9.35;7.18;;;12.20;52.20;;;;;;4932983;29;20117;-91
2022/04/20 01:02:58;;;;;;;7.90;6.63;;;12.20;52.40;;;;;;4914598;29;20066;-90
2022/04/20 01:05:28;;;;;;;9.30;7.45;;;12.20;52.40;;;;;;4913436;29;20038;-91
2022/04/20 01:08:15;;;;;;;9.18;7.07;;;12.10;52.30;;;;;;4907110;29;20031;-90
2022/04/20 01:11:08;;;;;;;8.05;6.63;;;12.10;52.40;;;;;;4906445;29;20043;-88
2022/04/20 01:13:43;;;;;;;8.43;6.63;;;12.10;52.40;;;;;;4928055;29;20037;-88
2022/04/20 01:16:22;;;;;;;8.25;6.28;;;12.00;52.30;;;;;;4931525;29;20031;-90
2022/04/20 01:19:08;;;;;;;7.85;7.05;;;12.00;52.40;;;;;;4932567;29;20027;-88
2022/04/20 01:21:52;;;;;;;9.40;7.32;;;12.00;52.40;;;;;;4931921;29;20020;-89
2022/04/20 01:24:45;;;;;;;9.77;7.65;;;12.00;52.60;;;;;;4927507;29;20135;-90
2022/04/20 01:27:19;;;;;;;11.10;7.40;;;11.90;52.40;;;;;;4930892;29;20032;-89
2022/04/20 01:29:46;;;;;;;8.90;7.80;;;11.90;52.60;;;;;;4932316;29;20031;-91
2022/04/20 01:32:35;;;;;;;8.05;7.25;;;11.90;52.70;;;;;;4934275;29;20059;-90
2022/04/20 01:35:08;;;;;;;7.90;6.95;;;11.90;52.70;;;;;;4911789;29;20380;-87
2022/04/20 01:37:34;;;;;;;7.93;7.13;;;11.80;52.60;;;;;;4932631;29;20036;-88
2022/04/20 01:40:00;;;;;;;8.70;6.82;;;11.80;52.70;;;;;;4931159;29;20060;-87
2022/04/20 01:42:27;;;;;;;9.68;6.95;;;11.80;52.70;;;;;;4931438;29;20031;-87
2022/04/20 01:44:58;;;;;;;8.50;7.43;;;11.80;52.80;;;;;;4934758;29;20353;-88
2022/04/20 01:47:37;;;;;;;8.10;7.30;;;11.70;52.70;;;;;;4915994;29;456233;-90
2022/04/20 01:50:28;;;;;;;10.20;8.13;;;11.70;52.80;;;;;;4916284;29;20036;-90
2022/04/20 01:53:02;;;;;;;8.88;8.07;;;11.70;52.80;;;;;;4954452;29;20058;-90
2022/04/20 01:55:46;;;;;;;8.85;7.70;;;11.70;52.90;;;;;;4936685;29;20043;-90
2022/04/20 01:58:36;;;;;;;8.93;8.05;;;11.70;52.90;;;;;;4931229;29;20043;-91
2022/04/20 02:04:01;;;;;;;9.80;7.25;;;11.60;52.80;;;;;;4942720;28;20047;-92
2022/04/20 02:06:29;;;;;;;10.20;7.43;;;11.60;52.80;;;;;;4958397;28;20030;-88
2022/04/20 02:09:05;;;;;;;10.10;7.15;;;11.60;52.90;;;;;;4959074;28;20087;-92
2022/04/20 02:11:43;;;;;;;11.60;8.48;;;11.60;53.00;;;;;;4942597;28;20024;-86
2022/04/20 02:14:19;;;;;;;7.90;7.05;;;11.60;53.00;;;;;;4943981;28;20070;-87
2022/04/20 02:16:52;;;;;;;11.32;7.80;;;11.60;53.10;;;;;;4958140;28;20046;-90
2022/04/20 02:19:37;;;;;;;8.00;6.95;;;11.60;53.10;;;;;;4942294;29;20051;-90
2022/04/20 02:22:10;;;;;;;9.82;7.10;;;11.60;53.10;;;;;;4925477;29;20039;-90
2022/04/20 02:24:37;;;;;;;8.20;7.20;;;11.60;53.20;;;;;;4943404;29;20047;-90
2022/04/20 02:27:07;;;;;;;8.75;7.22;;;11.60;53.20;;;;;;4924658;29;20035;-90
2022/04/20 02:29:33;;;;;;;8.75;6.82;;;11.70;53.40;;;;;;4937982;29;20036;-89
2022/04/20 02:32:00;;;;;;;10.88;8.45;;;11.70;53.40;;;;;;4921576;29;20055;-89
2022/04/20 02:34:26;;;;;;;7.15;6.43;;;11.60;53.30;;;;;;4928632;29;20062;-89
2022/04/20 02:36:52;;;;;;;7.97;6.70;;;11.70;53.50;;;;;;4944820;29;20032;-90
2022/04/20 02:39:21;;;;;;;8.57;7.15;;;11.70;53.50;;;;;;4936922;29;20031;-90
2022/04/20 02:41:48;;;;;;;9.60;6.97;;;11.70;53.50;;;;;;4935636;29;20119;-88
2022/04/20 02:44:14;;;;;;;7.80;6.90;;;11.70;53.60;;;;;;4938848;29;20138;-89
2022/04/20 02:46:42;;;;;;;7.78;6.97;;;11.70;53.60;;;;;;4958821;28;20066;-88
2022/04/20 02:49:08;;;;;;;7.80;7.03;;;11.70;54.20;;;;;;4958118;28;20028;-88
2022/04/20 02:51:34;;;;;;;7.43;6.45;;;11.70;53.60;;;;;;4960785;28;20068;-88
2022/04/20 02:54:01;;;;;;;11.07;7.55;;;11.70;53.60;;;;;;4948918;29;20035;-90
2022/04/20 02:56:28;;;;;;;8.27;6.82;;;11.70;53.70;;;;;;4949124;29;20040;-89
2022/04/20 02:58:55;;;;;;;9.57;8.43;;;11.70;53.70;;;;;;4923475;29;20467;-87
2022/04/20 03:01:22;;;;;;;9.80;6.97;;;11.70;53.70;;;;;;4936472;29;20054;-89
2022/04/20 03:03:51;;;;;;;8.68;7.75;;;11.70;53.70;;;;;;4934914;29;20066;-88
2022/04/20 03:06:29;;;;;;;8.45;7.03;;;11.70;53.80;;;;;;4927754;29;20028;-90
2022/04/20 03:09:00;;;;;;;8.48;7.60;;;11.70;53.80;;;;;;4918481;29;20106;-89
2022/04/20 03:11:28;;;;;;;8.35;7.43;;;11.80;54.00;;;;;;4920061;29;20032;-91
2022/04/20 03:13:56;;;;;;;11.82;8.48;;;11.70;53.90;;;;;;4933874;29;20043;-88
2022/04/20 03:16:25;;;;;;;8.18;6.68;;;11.70;53.90;;;;;;4934216;29;20067;-89
2022/04/20 03:18:54;;;;;;;7.82;7.07;;;11.70;53.90;;;;;;4906111;29;20094;-88
2022/04/20 03:21:24;;;;;;;7.47;6.20;;;11.70;53.90;;;;;;4931744;29;20027;-88
2022/04/20 03:23:53;;;;;;;11.07;7.60;;;11.70;53.90;;;;;;4936475;29;20055;-87
2022/04/20 03:26:33;;;;;;;8.40;6.90;;;11.70;53.90;;;;;;4929977;29;20092;-86
2022/04/20 03:29:05;;;;;;;12.63;7.63;;;11.80;54.20;;;;;;4924485;29;20039;-86
2022/04/20 03:31:34;;;;;;;10.52;7.80;;;11.70;53.90;;;;;;4928023;29;20286;-87
2022/04/20 03:34:01;;;;;;;9.80;7.22;;;11.80;54.10;;;;;;4932518;29;20734;-87
2022/04/20 03:36:28;;;;;;;9.95;7.70;;;11.80;54.20;;;;;;4923145;29;20043;-86
2022/04/20 03:38:55;;;;;;;11.43;7.88;;;11.80;54.20;;;;;;4929678;29;20115;-87
2022/04/20 03:41:22;;;;;;;10.93;8.13;;;11.70;54.10;;;;;;4916722;29;20538;-88
2022/04/20 03:43:48;;;;;;;10.60;8.10;;;11.70;54.10;;;;;;4933009;29;20091;-88
2022/04/20 03:46:14;;;;;;;9.55;8.32;;;11.70;54.10;;;;;;4933190;29;20034;-89
2022/04/20 03:48:41;;;;;;;8.82;7.90;;;11.70;54.10;;;;;;4919359;29;20140;-89
2022/04/20 03:51:07;;;;;;;8.48;7.35;;;11.70;54.10;;;;;;4916329;29;20621;-90
2022/04/20 03:53:33;;;;;;;11.70;8.88;;;11.70;54.10;;;;;;4932352;29;20118;-90
2022/04/20 03:56:01;;;;;;;11.85;8.23;;;11.70;54.10;;;;;;4931285;29;20020;-87
2022/04/20 03:58:27;;;;;;;8.70;7.25;;;11.70;54.10;;;;;;4941738;29;20039;-88
2022/04/20 04:00:54;;;;;;;10.77;7.43;;;11.70;54.10;;;;;;4930136;29;20083;-89
2022/04/20 04:03:21;;;;;;;8.93;7.97;;;11.70;54.20;;;;;;4931331;29;20067;-89
2022/04/20 04:05:48;;;;;;;10.10;8.02;;;11.60;54.10;;;;;;4932123;29;20074;-90
2022/04/20 04:08:21;;;;;;;10.32;8.05;;;11.70;54.30;;;;;;4941462;29;20055;-88
2022/04/20 04:10:50;;;;;;;9.77;8.32;;;11.70;54.30;;;;;;4932541;29;20122;-89
2022/04/20 04:13:17;;;;;;;10.40;7.70;;;11.70;54.30;;;;;;4944617;29;20049;-89
2022/04/20 04:15:50;;;;;;;8.68;7.68;;;11.70;54.30;;;;;;4917363;29;20035;-89
2022/04/20 04:18:16;;;;;;;10.02;7.78;;;11.70;54.30;;;;;;4931304;29;20493;-86
2022/04/20 04:20:48;;;;;;;10.93;8.57;;;11.70;54.30;;;;;;4922027;29;20039;-89
2022/04/20 04:23:17;;;;;;;9.88;8.55;;;11.60;54.20;;;;;;4936294;29;20039;-89
2022/04/20 04:25:50;;;;;;;9.90;7.60;;;11.60;54.20;;;;;;4940528;29;20043;-88
2022/04/20 04:28:25;;;;;;;14.00;8.38;;;11.70;54.40;;;;;;4929855;29;20031;-89
2022/04/20 04:30:51;;;;;;;11.02;8.32;;;11.60;54.80;;;;;;4938216;29;20341;-89
2022/04/20 04:33:17;;;;;;;9.60;8.45;;;11.60;54.20;;;;;;4917975;29;20039;-88
2022/04/20 04:35:43;;;;;;;8.77;7.72;;;11.60;54.30;;;;;;4923384;29;20031;-89
2022/04/20 04:38:13;;;;;;;10.55;9.18;;;11.60;54.90;;;;;;4921793;29;20024;-88
2022/04/20 04:40:39;;;;;;;10.13;8.30;;;11.60;54.40;;;;;;4915660;29;20126;-89
2022/04/20 04:43:06;;;;;;;8.90;7.82;;;11.50;54.20;;;;;;4934063;29;20079;-90
2022/04/20 04:48:38;;;;;;;11.13;7.80;;;11.50;55.00;;;;;;4925052;29;20051;-91
2022/04/20 04:51:08;;;;;;;12.15;8.57;;;11.50;54.40;;;;;;4933534;29;20447;-90
2022/04/20 04:53:34;;;;;;;11.55;8.18;;;11.50;54.50;;;;;;4918435;28;20142;-90
2022/04/20 04:56:02;;;;;;;13.43;8.73;;;11.50;54.60;;;;;;4916928;29;20058;-90
2022/04/20 04:58:30;;;;;;;13.98;8.63;;;11.40;54.50;;;;;;4930254;29;20088;-88
2022/04/20 05:00:57;;;;;;;10.30;7.82;;;11.40;54.50;;;;;;4931859;29;20055;-87
2022/04/20 05:03:27;;;;;;;9.25;7.25;;;11.40;54.60;;;;;;4931506;29;20046;-86
2022/04/20 05:05:54;;;;;;;10.30;8.52;;;11.40;54.60;;;;;;4932970;29;20364;-88
2022/04/20 05:08:40;;;;;;;9.15;7.85;;;11.40;54.70;;;;;;4931047;29;20067;-87
2022/04/20 05:11:07;;;;;;;11.23;7.97;;;11.40;54.70;;;;;;4928616;29;20036;-88
2022/04/20 05:13:33;;;;;;;10.18;8.18;;;11.40;54.80;;;;;;4924318;29;20546;-88
2022/04/20 05:15:59;;;;;;;10.05;7.75;;;11.40;54.80;;;;;;4933937;29;20034;-89
2022/04/20 05:18:26;;;;;;;9.60;8.30;;;11.30;55.20;;;;;;4928684;29;20027;-85
2022/04/20 05:20:52;;;;;;;10.20;8.00;;;11.30;54.70;;;;;;4935546;29;20059;-88
2022/04/20 05:23:19;;;;;;;9.48;8.38;;;11.30;54.70;;;;;;4927397;29;20039;-84
2022/04/20 05:25:45;;;;;;;11.73;8.50;;;11.30;54.80;;;;;;4923326;29;20086;-83
2022/04/20 05:28:12;;;;;;;9.70;8.20;;;11.30;54.80;;;;;;4925928;29;20429;-83
2022/04/20 05:30:38;;;;;;;11.75;8.20;;;11.30;54.80;;;;;;4926120;29;20043;-84
2022/04/20 05:33:04;;;;;;;10.18;8.10;;;11.30;54.90;;;;;;4924745;29;20039;-86
2022/04/20 05:35:32;;;;;;;10.10;8.88;;;11.30;54.90;;;;;;4912138;29;20044;-91
2022/04/20 05:43:35;;;;;;;13.80;10.93;;;11.20;54.80;;;;;;4928029;29;20403;-86
2022/04/20 05:46:01;;;;;;;13.38;11.10;;;11.30;55.10;;;;;;4931423;29;20123;-86
2022/04/20 05:48:45;;;;;;;13.27;11.35;;;11.30;55.20;;;;;;4936678;29;20114;-87
2022/04/20 05:51:14;;;;;;;12.38;11.15;;;11.30;55.20;;;;;;4932619;29;20054;-90
2022/04/20 05:53:40;;;;;;;12.07;10.73;;;11.30;55.30;;;;;;4914095;29;20044;-95
2022/04/20 05:56:08;;;;;;;12.80;10.43;;;11.30;55.30;;;;;;4925806;29;20086;-87
2022/04/20 05:58:39;;;;;;;12.43;11.15;;;11.30;55.30;;;;;;4927926;29;20040;-86
2022/04/20 06:01:05;;;;;;;11.88;10.07;;;11.30;55.30;;;;;;4930185;29;20174;-87
2022/04/20 06:03:52;;;;;;;10.70;9.70;;;11.30;55.30;;;;;;4915604;29;20032;-87
2022/04/20 06:06:42;;;;;;;13.30;10.32;;;11.40;55.40;;;;;;4932571;29;20048;-88
2022/04/20 06:09:15;;;;;;;11.73;9.68;;;11.50;55.40;;;;;;4911237;29;20475;-86
2022/04/20 06:12:04;;;;;;;12.65;10.18;;;11.50;55.40;;;;;;4927458;29;20131;-83
2022/04/20 06:14:50;;;;;;;15.82;9.77;;;11.60;55.80;;;;;;4924676;29;20034;-84
2022/04/20 06:17:35;;;;;;;12.50;9.35;;;11.80;56.20;;;;;;4933592;29;20381;-83
2022/04/20 06:20:01;;;;;;;10.10;8.55;;;12.00;56.30;;;;;;4950359;29;20032;-83
2022/04/20 06:22:50;;;;;;;11.75;9.48;;;12.00;56.10;;;;;;4938781;28;20095;-84
2022/04/20 06:25:28;;;;;;;10.35;9.25;;;12.20;56.30;;;;;;4920879;29;20058;-81
2022/04/20 06:28:15;;;;;;;10.73;9.30;;;12.20;56.20;;;;;;4934178;29;20082;-83
2022/04/20 06:31:13;;;;;;;11.38;9.43;;;12.30;56.20;;;;;;4944117;28;20047;-82
2022/04/20 06:33:39;;;;;;;13.25;10.93;;;12.40;56.10;;;;;;4932569;29;20046;-84
2022/04/20 06:36:25;;;;;;;12.57;9.88;;;12.50;56.10;;;;;;4937498;29;20044;-83
2022/04/20 06:39:03;;;;;;;10.52;9.43;;;12.60;56.00;;;;;;4943404;29;20079;-84
2022/04/20 06:41:51;;;;;;;10.88;9.57;;;12.80;56.20;;;;;;4935249;29;20513;-83
2022/04/20 06:44:35;;;;;;;10.27;8.45;;;13.00;56.00;;;;;;4935448;29;20035;-84
2022/04/20 06:47:21;;;;;;;10.68;9.13;;;13.20;56.00;;;;;;4947077;29;20051;-83
2022/04/20 06:50:06;;;;;;;11.55;9.02;;;13.40;55.80;;;;;;4945343;29;20322;-84
2022/04/20 06:58:35;;;;;;;10.60;9.02;;;14.60;55.50;;;;;;4948136;29;20036;-83
2022/04/20 07:01:08;;;;;;;10.10;9.10;;;15.10;55.30;;;;;;4952760;29;20024;-84
2022/04/20 07:03:54;;;;;;;10.98;8.68;;;15.50;54.90;;;;;;4918732;29;20459;-84
2022/04/20 07:06:49;;;;;;;11.68;10.25;;;15.90;54.60;;;;;;4925339;29;20036;-84
2022/04/20 07:09:27;;;;;;;10.57;9.20;;;16.40;54.40;;;;;;4931603;29;20036;-82
2022/04/20 07:12:01;;;;;;;12.00;10.07;;;16.80;54.00;;;;;;4929994;29;20086;-85
2022/04/20 07:14:27;;;;;;;10.27;8.55;;;17.10;53.60;;;;;;4914793;29;20024;-85
2022/04/20 07:16:53;;;;;;;10.27;9.27;;;17.40;53.30;;;;;;4928445;29;20138;-82
2022/04/20 07:19:25;;;;;;;12.02;8.85;;;17.70;53.10;;;;;;4926926;29;20067;-83
2022/04/20 07:22:09;;;;;;;10.25;9.07;;;17.90;52.90;;;;;;4919122;29;20035;-82
2022/04/20 07:24:44;;;;;;;11.90;9.00;;;18.00;52.70;;;;;;4913524;29;20048;-83
2022/04/20 07:27:37;;;;;;;9.47;8.50;;;17.90;52.50;;;;;;4929115;29;20297;-84
2022/04/20 07:30:22;;;;;;;10.05;8.98;;;17.80;52.60;;;;;;4930391;29;20241;-82
2022/04/20 07:33:08;;;;;;;10.85;9.55;;;17.70;52.60;;;;;;4936086;29;20035;-83
2022/04/20 07:35:57;;;;;;;10.10;8.30;;;17.70;52.80;;;;;;4920463;29;20039;-84
2022/04/20 07:38:49;;;;;;;8.85;7.88;;;17.50;52.60;;;;;;4926904;29;20032;-84
2022/04/20 07:41:33;;;;;;;8.75;7.95;;;17.40;52.60;;;;;;4930585;29;20032;-84
2022/04/20 07:44:10;;;;;;;9.50;8.43;;;17.30;52.50;;;;;;4929294;29;20074;-86
2022/04/20 07:46:52;;;;;;;11.65;10.02;;;17.20;52.40;;;;;;4927093;29;20043;-86
2022/04/20 07:52:21;;;;;;;10.40;8.52;;;17.10;52.20;;;;;;4923570;29;20036;-82
2022/04/20 07:55:12;;;;;;;12.23;9.30;;;17.10;52.20;;;;;;4926638;29;20035;-85
2022/04/20 07:58:01;;;;;;;10.70;9.32;;;17.20;52.10;;;;;;4923722;29;20071;-88
2022/04/20 08:00:57;;;;;;;11.32;9.82;;;17.20;51.80;;;;;;4906899;29;20147;-83
2022/04/20 08:03:42;;;;;;;12.90;11.18;;;17.20;51.40;;;;;;4928376;29;20506;-84
2022/04/20 08:06:09;;;;;;;12.02;10.52;;;17.30;51.40;;;;;;4916763;29;20031;-84
2022/04/20 08:08:38;;;;;;;12.27;10.93;;;17.20;51.00;;;;;;4927738;29;20023;-86
2022/04/20 08:11:05;;;;;;;11.57;10.38;;;17.30;51.00;;;;;;4928761;29;20039;-88
2022/04/20 08:16:37;;;;;;;13.73;11.27;;;17.30;50.80;;;;;;4918710;29;20032;-81
2022/04/20 08:19:21;;;;;;;12.13;10.68;;;17.20;50.80;;;;;;4926041;29;20119;-83
2022/04/20 08:21:53;;;;;;;12.15;10.75;;;17.20;50.80;;;;;;4931769;29;20042;-85
2022/04/20 08:24:19;;;;;;;15.43;11.15;;;17.20;50.80;;;;;;4930491;29;20381;-84
2022/04/20 08:26:45;;;;;;;12.07;10.82;;;17.30;51.00;;;;;;4930858;29;20039;-85
2022/04/20 08:29:11;;;;;;;11.68;10.48;;;17.30;50.90;;;;;;4929771;29;20028;-93
2022/04/20 08:31:37;;;;;;;11.63;10.52;;;17.30;50.90;;;;;;4929414;29;20038;-84
2022/04/20 08:34:04;;;;;;;14.45;11.50;;;17.40;51.00;;;;;;4932053;29;20040;-86
2022/04/20 08:36:30;;;;;;;11.57;10.40;;;17.40;50.90;;;;;;4900283;29;20526;-89
2022/04/20 08:38:56;;;;;;;12.23;11.00;;;17.50;51.00;;;;;;4929941;29;20379;-86
2022/04/20 08:41:22;;;;;;;12.80;11.50;;;17.60;50.90;;;;;;4933901;29;20031;-88
2022/04/20 08:43:48;;;;;;;12.10;10.90;;;17.70;50.80;;;;;;4932902;29;20430;-88
2022/04/20 08:46:17;;;;;;;13.25;11.95;;;17.80;50.90;;;;;;4932765;29;20036;-90
2022/04/20 08:48:43;;;;;;;13.43;12.05;;;17.90;50.90;;;;;;4932873;29;20051;-88
2022/04/20 08:51:09;;;;;;;15.57;12.73;;;18.10;50.90;;;;;;4929428;29;20035;-87
2022/04/20 08:53:36;;;;;;;14.95;12.60;;;18.20;50.90;;;;;;4932546;29;20035;-84
2022/04/20 08:58:50;;;;;;;14.57;13.05;;;18.50;50.70;;;;;;4953894;28;20144;-90
2022/04/20 09:01:19;;;;;;;14.52;13.05;;;18.70;50.60;;;;;;4958387;29;20111;-88
2022/04/20 09:03:46;;;;;;;15.20;13.48;;;18.90;50.60;;;;;;4952134;28;20040;-89
2022/04/20 09:06:15;;;;;;;15.23;13.60;;;19.00;50.50;;;;;;4953587;28;20058;-89
2022/04/20 09:08:44;;;;;;;13.52;12.23;;;19.00;50.30;;;;;;4953217;28;20047;-90
2022/04/20 09:11:10;;;;;;;17.25;14.15;;;19.00;50.30;;;;;;4949984;28;20051;-88
2022/04/20 09:13:41;;;;;;;15.27;13.88;;;18.90;50.20;;;;;;4951816;28;20019;-86
2022/04/20 09:16:09;;;;;;;14.70;13.20;;;18.90;50.20;;;;;;4936155;29;20043;-85
2022/04/20 09:18:36;;;;;;;15.35;13.00;;;19.00;50.30;;;;;;4935312;29;20142;-88
2022/04/20 09:21:15;;;;;;;14.73;12.48;;;19.10;50.30;;;;;;4934084;29;20028;-87
2022/04/20 09:23:41;;;;;;;15.75;13.98;;;19.30;50.20;;;;;;4916263;29;20171;-83
2022/04/20 09:26:12;;;;;;;14.90;13.48;;;19.40;50.20;;;;;;4931069;29;20110;-83
2022/04/20 09:28:40;;;;;;;15.18;13.52;;;19.50;50.10;;;;;;4928560;29;20032;-82
2022/04/20 09:31:11;;;;;;;16.70;14.95;;;19.60;50.00;;;;;;4928225;29;20055;-82
2022/04/20 09:33:50;;;;;;;16.17;14.38;;;19.60;49.80;;;;;;4928699;29;20117;-82
2022/04/20 09:36:40;;;;;;;16.17;13.85;;;19.60;49.70;;;;;;4927986;29;20312;-83
2022/04/20 09:39:06;;;;;;;14.57;13.18;;;19.50;49.80;;;;;;4926520;29;20059;-82
2022/04/20 09:41:54;;;;;;;15.73;13.55;;;19.40;49.70;;;;;;4930545;29;20078;-81
2022/04/20 09:44:22;;;;;;;16.55;14.85;;;19.30;49.70;;;;;;4924350;29;20035;-81
2022/04/20 09:49:36;;;;;;;18.50;14.95;;;19.30;49.70;;;;;;4923388;29;20044;-81
2022/04/20 09:52:12;;;;;;;15.80;14.15;;;19.30;49.60;;;;;;4918560;29;20119;-81
2022/04/20 09:54:53;;;;;;;14.80;13.35;;;19.40;49.50;;;;;;4921504;29;20114;-83
2022/04/20 09:57:20;;;;;;;15.45;13.85;;;19.40;49.40;;;;;;4926583;29;20023;-83
2022/04/20 10:00:00;;;;;;;16.67;14.98;;;19.40;49.40;;;;;;4919944;29;20597;-82
2022/04/20 10:02:28;;;;;;;16.30;14.38;;;19.50;49.40;;;;;;4928582;29;20357;-83
2022/04/20 10:04:55;;;;;;;15.98;14.27;;;19.40;49.30;;;;;;4927868;29;20052;-84
2022/04/20 10:07:21;;;;;;;16.63;13.63;;;19.40;49.20;;;;;;4932850;29;20032;-82
2022/04/20 10:09:47;;;;;;;15.00;13.50;;;19.30;49.20;;;;;;4929579;29;20543;-83
2022/04/20 10:12:15;;;;;;;16.25;14.55;;;19.20;49.10;;;;;;4930692;29;20130;-81
2022/04/20 10:17:41;;;;;;;15.13;13.52;;;19.00;49.10;;;;;;4922739;29;20071;-83
2022/04/20 10:20:08;;;;;;;16.45;14.20;;;19.00;49.30;;;;;;4932657;29;20488;-83
2022/04/20 10:22:35;;;;;;;15.65;14.15;;;18.90;49.10;;;;;;4929791;29;20518;-83
2022/04/20 10:25:02;;;;;;;16.27;14.57;;;18.90;49.20;;;;;;4929765;29;20049;-85
2022/04/20 10:27:48;;;;;;;17.20;15.48;;;18.90;49.20;;;;;;4927939;29;20383;-87
2022/04/20 10:30:24;;;;;;;16.08;14.48;;;18.90;49.20;;;;;;4929825;29;20036;-86
2022/04/20 10:33:07;;;;;;;16.38;14.77;;;19.00;49.30;;;;;;4929526;29;20032;-86
2022/04/20 10:36:01;;;;;;;17.42;15.05;;;19.10;49.30;;;;;;4918216;29;20040;-79
2022/04/20 10:38:32;;;;;;;16.38;13.77;;;19.30;49.30;;;;;;4910402;29;20130;-83
2022/04/20 10:41:09;;;;;;;13.55;11.52;;;19.40;49.20;;;;;;4930819;29;20063;-79
2022/04/20 10:43:42;;;;;;;15.30;11.52;;;19.60;49.50;;;;;;4943366;29;20289;-84
2022/04/20 10:46:12;;;;;;;14.15;11.30;;;19.90;49.90;;;;;;4949142;29;20052;-85
2022/04/20 10:48:44;;;;;;;13.13;11.35;;;20.20;50.20;;;;;;4960600;29;20037;-89
2022/04/20 10:51:22;;;;;;;16.52;12.63;;;20.30;50.10;;;;;;4958887;29;20087;-87
2022/04/20 10:53:50;;;;;;;15.25;13.27;;;20.50;50.10;;;;;;4947375;29;20055;-86
2022/04/20 10:56:17;;;;;;;14.63;12.55;;;20.70;50.30;;;;;;4949305;23;20055;-77
2022/04/20 10:59:07;;;;;;;14.77;12.18;;;20.80;50.20;;;;;;4953639;28;20073;-78
2022/04/20 11:01:58;;;;;;;14.98;12.88;;;20.90;50.10;;;;;;4954517;28;20545;-77
2022/04/20 11:04:50;;;;;;;14.23;12.73;;;20.90;50.00;;;;;;4946910;28;20049;-77
2022/04/20 11:07:19;;;;;;;16.65;13.15;;;21.00;50.60;;;;;;4949699;28;20174;-76
2022/04/20 11:09:45;;;;;;;13.13;11.82;;;21.10;50.70;;;;;;4952183;28;20069;-78
2022/04/20 11:21:09;;;;;;;14.45;12.80;;;21.30;50.00;;;;;;4958713;28;20314;-76
2022/04/20 11:24:07;;;;;;;13.65;12.13;;;21.30;50.00;;;;;;4952201;28;20086;-76
2022/04/20 11:26:39;;;;;;;15.38;13.00;;;21.30;49.70;;;;;;4962927;28;20074;-78
2022/04/20 11:29:14;;;;;;;14.07;12.68;;;21.30;49.80;;;;;;4959980;28;20027;-78
2022/04/20 11:31:48;;;;;;;14.65;13.25;;;21.30;49.60;;;;;;4946488;28;20150;-78
2022/04/20 11:34:17;;;;;;;14.35;12.85;;;21.40;49.70;;;;;;4944314;28;20039;-79
2022/04/20 11:36:48;;;;;;;14.23;12.73;;;21.50;49.90;;;;;;4953603;28;20039;-78
2022/04/20 11:39:16;;;;;;;12.88;11.55;;;21.50;50.00;;;;;;4957621;28;20069;-79
2022/04/20 11:41:56;;;;;;;18.17;15.38;;;21.50;49.60;;;;;;4949560;28;20031;-81
2022/04/20 11:44:31;;;;;;;17.95;16.15;;;21.60;49.60;;;;;;4957082;28;20035;-83
2022/04/20 11:47:08;;;;;;;19.50;14.73;;;21.60;49.60;;;;;;4959756;28;20133;-77
2022/04/20 11:49:39;;;;;;;16.45;14.70;;;21.60;49.80;;;;;;4933631;28;20042;-79
2022/04/20 11:52:08;;;;;;;17.88;13.38;;;21.60;49.90;;;;;;4941698;29;20042;-79
2022/04/20 11:54:35;;;;;;;16.50;14.73;;;21.70;50.00;;;;;;4930587;28;20070;-79
2022/04/20 11:57:13;;;;;;;16.63;13.18;;;21.80;50.20;;;;;;4952471;28;20134;-79
2022/04/20 11:59:44;;;;;;;17.73;14.30;;;21.80;50.10;;;;;;4942209;28;20129;-79
2022/04/20 12:02:14;;;;;;;17.20;13.68;;;21.90;50.20;;;;;;4940875;29;20031;-78
2022/04/20 12:04:40;;;;;;;16.92;14.23;;;22.00;50.30;;;;;;4937842;28;20554;-78
2022/04/20 12:07:08;;;;;;;14.82;12.52;;;22.10;50.30;;;;;;4936317;29;20031;-78
2022/04/20 12:09:36;;;;;;;13.77;12.45;;;22.20;50.30;;;;;;4941862;28;20254;-77
2022/04/20 12:12:05;;;;;;;14.45;13.05;;;22.30;50.30;;;;;;4914089;29;20057;-77
2022/04/20 12:14:38;;;;;;;15.48;13.88;;;22.30;50.10;;;;;;4955504;28;20066;-78
2022/04/20 12:17:07;;;;;;;14.45;12.93;;;22.40;50.10;;;;;;4939107;28;20170;-78
2022/04/20 12:19:38;;;;;;;;;;;22.50;50.10;;;;;;4943797;28;20062;-77
2022/04/20 12:22:12;;;;;;;14.15;12.55;;;22.60;50.20;;;;;;4930552;28;20022;-77
2022/04/20 12:24:41;;;;;;;14.02;12.63;;;22.70;50.30;;;;;;4942378;28;20046;-78
2022/04/20 12:27:22;;;;;;;14.30;11.98;;;22.70;50.10;;;;;;4953809;28;20130;-78
2022/04/20 12:29:58;;;;;;;13.98;12.35;;;22.90;50.20;;;;;;4931288;28;20087;-78
2022/04/20 12:32:26;;;;;;;12.68;11.45;;;23.00;50.20;;;;;;4935479;29;20038;-78
2022/04/20 12:34:54;;;;;;;12.93;11.52;;;23.10;50.20;;;;;;4941179;29;20410;-78
2022/04/20 12:37:30;;;;;;;13.35;12.00;;;23.20;50.20;;;;;;4936680;29;20491;-77
2022/04/20 12:40:18;;;;;;;12.98;11.68;;;23.30;50.10;;;;;;4925433;29;20391;-77
2022/04/20 12:43:05;;;;;;;12.77;11.32;;;23.40;50.10;;;;;;4931321;28;20028;-78
2022/04/20 12:45:34;;;;;;;12.70;11.38;;;23.60;50.00;;;;;;4943115;29;20083;-78
2022/04/20 12:48:10;;;;;;;11.95;10.65;;;23.60;50.10;;;;;;4940307;28;20447;-78
2022/04/20 12:50:38;;;;;;;14.43;11.20;;;23.60;49.90;;;;;;4927044;29;20071;-79
2022/04/20 12:53:05;;;;;;;12.15;10.93;;;23.70;50.10;;;;;;4917215;29;20063;-78
2022/04/20 13:04:11;;;;;;;11.13;10.02;;;24.10;50.00;;;;;;4936575;29;20106;-78
2022/04/20 13:06:37;;;;;;;11.52;10.40;;;24.10;49.90;;;;;;4914761;29;20027;-79
2022/04/20 13:09:03;;;;;;;12.00;10.70;;;24.20;49.90;;;;;;4935594;28;20064;-79
2022/04/20 13:11:29;;;;;;;11.48;10.35;;;24.30;49.80;;;;;;4939031;29;20346;-79
2022/04/20 13:13:58;;;;;;;14.02;12.52;;;24.50;50.00;;;;;;4942194;29;20068;-79
2022/04/20 13:16:24;;;;;;;12.52;11.25;;;24.70;49.90;;;;;;4933457;29;20441;-79
2022/04/20 13:18:51;;;;;;;12.98;10.57;;;24.80;49.80;;;;;;4940052;28;20118;-78
2022/04/20 13:21:17;;;;;;;13.55;10.77;;;24.90;49.70;;;;;;4928579;29;20035;-81
2022/04/20 13:23:43;;;;;;;13.05;11.27;;;25.10;49.70;;;;;;4940217;28;20450;-79
2022/04/20 13:29:04;;;;;;;11.60;10.45;;;25.20;49.50;;;;;;4916563;29;20044;-80
2022/04/20 13:31:32;;;;;;;12.05;10.70;;;25.20;49.40;;;;;;4952113;28;20039;-80
2022/04/20 13:33:59;;;;;;;11.98;10.82;;;25.30;49.20;;;;;;4929511;29;20451;-78
2022/04/20 13:36:25;;;;;;;11.10;9.57;;;25.50;49.20;;;;;;4933571;28;20032;-80
2022/04/20 13:38:50;;;;;;;11.38;9.55;;;25.60;48.90;;;;;;4939500;28;20027;-80
2022/04/20 13:41:17;;;;;;;11.95;9.50;;;25.80;48.80;;;;;;4935811;28;20072;-80
2022/04/20 13:43:43;;;;;;;11.73;9.63;;;25.90;48.80;;;;;;4919079;29;20051;-79
2022/04/20 13:46:09;;;;;;;12.13;9.90;;;26.10;48.60;;;;;;4933175;29;20508;-79
2022/04/20 13:48:35;;;;;;;10.52;9.52;;;26.30;48.30;;;;;;4933113;28;20039;-80
2022/04/20 13:51:01;;;;;;;11.63;10.43;;;26.40;48.00;;;;;;4933606;29;20075;-78
2022/04/20 13:53:27;;;;;;;11.95;10.68;;;26.40;47.80;;;;;;4933715;29;20032;-78